Time;durP1;ratioP1;P1;durP2;ratioP2;P2;SDS_P1;SDS_P2;PMS_P1;PMS_P2;Temp;Humidity;BMP_temperature;BMP_pressure;BME280_temperature;BME280_humidity;BME280_pressure;Samples;Min_cycle;Max_cycle;Signal;HPM_P1;HPM_P2
2023/01/02 00:01:11;;;;;;;1.93;0.97;;;15.60;99.90;;;;;;5049008;28;20272;-74
2023/01/02 00:03:36;;;;;;;1.63;1.20;;;15.60;99.90;;;;;;5050302;28;20221;-74
2023/01/02 00:06:03;;;;;;;4.43;1.50;;;15.60;99.90;;;;;;5050113;28;20208;-74
2023/01/02 00:08:29;;;;;;;1.40;1.03;;;15.60;99.90;;;;;;5050331;28;20672;-74
2023/01/02 00:10:54;;;;;;;6.00;1.27;;;15.60;99.90;;;;;;5049880;28;20525;-74
2023/01/02 00:13:20;;;;;;;0.93;0.90;;;15.60;99.90;;;;;;5049283;28;20213;-74
2023/01/02 00:15:45;;;;;;;1.93;1.60;;;15.60;99.90;;;;;;5049668;28;20239;-73
2023/01/02 00:18:11;;;;;;;2.07;1.30;;;15.60;99.90;;;;;;5050030;28;20282;-75
2023/01/02 00:20:36;;;;;;;2.70;1.17;;;15.70;99.90;;;;;;5049816;28;20715;-75
2023/01/02 00:23:02;;;;;;;1.50;1.27;;;15.70;99.90;;;;;;5048292;28;20576;-74
2023/01/02 00:25:27;;;;;;;1.00;0.80;;;15.70;99.90;;;;;;5050450;28;20193;-73
2023/01/02 00:27:54;;;;;;;2.10;0.90;;;15.80;99.90;;;;;;5049821;28;20632;-74
2023/01/02 00:30:20;;;;;;;1.43;1.00;;;15.80;99.90;;;;;;5049023;28;20216;-74
2023/01/02 00:32:45;;;;;;;1.23;0.97;;;15.80;99.90;;;;;;5035496;28;20840;-74
2023/01/02 00:35:11;;;;;;;3.83;1.27;;;15.70;99.90;;;;;;5029762;28;20213;-75
2023/01/02 00:37:36;;;;;;;1.50;1.02;;;15.80;99.90;;;;;;5026860;28;20542;-74
2023/01/02 00:40:03;;;;;;;1.33;1.23;;;15.80;99.90;;;;;;5050329;28;20197;-74
2023/01/02 00:42:28;;;;;;;4.37;1.30;;;15.80;99.90;;;;;;5049155;28;20267;-74
2023/01/02 00:44:54;;;;;;;1.83;1.23;;;15.70;99.90;;;;;;5049330;28;20420;-74
2023/01/02 00:47:19;;;;;;;4.63;1.83;;;15.80;99.90;;;;;;5050599;28;20177;-74
2023/01/02 00:49:45;;;;;;;3.07;1.50;;;15.70;99.90;;;;;;5050631;28;20638;-74
2023/01/02 00:52:10;;;;;;;1.40;1.30;;;15.80;99.90;;;;;;5049363;28;20208;-74
2023/01/02 00:54:36;;;;;;;3.10;1.50;;;15.80;99.90;;;;;;5051033;28;20196;-74
2023/01/02 00:57:01;;;;;;;4.80;1.13;;;15.80;99.90;;;;;;5049166;28;20185;-74
2023/01/02 00:59:27;;;;;;;1.07;1.00;;;15.70;99.90;;;;;;5050690;28;20568;-74
2023/01/02 01:01:52;;;;;;;5.23;1.43;;;15.70;99.90;;;;;;5049533;28;20201;-74
2023/01/02 01:04:18;;;;;;;1.23;1.13;;;15.70;99.90;;;;;;5050163;28;20216;-74
2023/01/02 01:06:43;;;;;;;1.43;1.33;;;15.70;99.90;;;;;;5049994;28;20170;-74
2023/01/02 01:09:09;;;;;;;1.30;1.20;;;15.60;99.90;;;;;;5049870;28;20173;-73
2023/01/02 01:11:34;;;;;;;3.20;1.50;;;15.60;99.90;;;;;;5049910;28;20272;-74
2023/01/02 01:14:00;;;;;;;3.07;1.30;;;15.50;99.90;;;;;;5048908;28;20212;-74
2023/01/02 01:16:25;;;;;;;1.83;1.50;;;15.40;99.90;;;;;;5050094;28;20185;-74
2023/01/02 01:18:55;;;;;;;3.20;1.93;;;15.20;99.90;;;;;;5049745;28;20612;-74
2023/01/02 01:21:21;;;;;;;2.23;1.70;;;14.90;99.90;;;;;;5049210;28;20529;-74
2023/01/02 01:23:51;;;;;;;5.80;2.10;;;14.70;99.90;;;;;;5050158;28;20988;-73
2023/01/02 01:26:17;;;;;;;1.67;1.57;;;14.60;99.90;;;;;;5050131;28;20416;-74
2023/01/02 01:28:43;;;;;;;1.93;1.50;;;14.50;99.90;;;;;;5049566;28;20412;-73
2023/01/02 01:31:11;;;;;;;3.93;2.50;;;14.30;99.90;;;;;;5049054;28;20462;-74
2023/01/02 01:33:38;;;;;;;2.83;2.10;;;14.30;99.90;;;;;;5050151;28;20187;-73
2023/01/02 01:36:10;;;;;;;3.70;2.23;;;14.10;99.90;;;;;;5050002;28;20469;-73
2023/01/02 01:38:35;;;;;;;4.67;2.10;;;14.00;99.90;;;;;;5049768;28;20412;-74
2023/01/02 01:41:02;;;;;;;1.70;1.53;;;13.90;99.90;;;;;;5049155;28;20774;-74
2023/01/02 01:43:50;;;;;;;1.97;1.77;;;13.80;99.90;;;;;;5049646;28;20288;-74
2023/01/02 01:46:37;;;;;;;6.47;2.30;;;13.70;99.90;;;;;;5049887;28;20445;-74
2023/01/02 01:49:04;;;;;;;2.13;1.97;;;13.60;99.90;;;;;;5049609;28;20408;-74
2023/01/02 01:51:33;;;;;;;2.50;1.73;;;13.60;99.90;;;;;;5049183;28;20423;-74
2023/01/02 01:54:08;;;;;;;2.80;1.67;;;13.50;99.90;;;;;;5031708;28;20514;-74
2023/01/02 01:56:37;;;;;;;3.77;2.20;;;13.40;99.90;;;;;;5050294;28;20431;-74
2023/01/02 01:59:03;;;;;;;3.67;2.70;;;13.30;99.90;;;;;;5048841;28;20410;-73
2023/01/02 03:32:12;;;;;;;3.87;1.47;;;15.30;99.90;;;;;;5563020;22;20486;-73
2023/01/02 03:34:39;;;;;;;3.03;1.17;;;15.30;99.90;;;;;;5060152;28;20408;-70
2023/01/02 03:37:17;;;;;;;0.80;0.80;;;15.20;99.90;;;;;;5051533;28;20407;-73
2023/01/02 03:39:49;;;;;;;7.53;1.53;;;15.20;99.90;;;;;;5051436;28;20816;-72
2023/01/02 03:42:26;;;;;;;2.43;1.10;;;15.20;99.90;;;;;;5037095;28;20484;-72
2023/01/02 03:45:01;;;;;;;3.53;1.23;;;15.20;99.90;;;;;;5032029;28;20495;-72
2023/01/02 03:47:40;;;;;;;1.30;0.80;;;15.20;99.90;;;;;;5042312;28;20756;-71
2023/01/02 03:50:14;;;;;;;4.70;1.03;;;15.10;99.90;;;;;;5050544;28;20904;-72
2023/01/02 03:52:40;;;;;;;5.60;1.00;;;15.10;99.90;;;;;;5050654;28;20423;-72
2023/01/02 03:55:06;;;;;;;1.93;0.90;;;15.10;99.90;;;;;;5051661;28;20423;-72
2023/01/02 03:57:38;;;;;;;1.40;0.90;;;15.10;99.90;;;;;;5051869;28;20177;-72
2023/01/02 04:00:08;;;;;;;2.67;1.00;;;15.10;99.90;;;;;;5051185;28;20419;-71
2023/01/02 04:02:53;;;;;;;3.77;1.20;;;15.10;99.90;;;;;;5049394;28;20581;-72
2023/01/02 04:05:43;;;;;;;1.43;1.00;;;15.20;99.90;;;;;;5033627;28;20432;-71
2023/01/02 04:08:26;;;;;;;2.50;1.13;;;15.20;99.90;;;;;;5051574;28;20930;-72
2023/01/02 04:10:56;;;;;;;4.97;1.53;;;15.30;99.90;;;;;;5051054;28;20446;-72
2023/01/02 04:13:27;;;;;;;1.30;1.20;;;15.30;99.90;;;;;;5050739;28;20509;-72
2023/01/02 04:15:55;;;;;;;2.90;1.50;;;15.30;99.90;;;;;;5051167;28;20419;-73
2023/01/02 04:18:28;;;;;;;2.97;1.10;;;15.30;99.90;;;;;;5051187;28;20451;-71
2023/01/02 04:21:00;;;;;;;3.47;1.13;;;15.30;99.90;;;;;;5050846;28;20486;-72
2023/01/02 04:23:34;;;;;;;1.13;0.80;;;15.30;99.90;;;;;;5051015;28;20554;-72
2023/01/02 04:26:06;;;;;;;1.43;0.90;;;15.30;99.90;;;;;;5051225;28;20408;-72
2023/01/02 04:28:33;;;;;;;4.13;1.67;;;15.20;99.90;;;;;;5050475;28;20415;-73
2023/01/02 04:31:35;;;;;;;3.00;1.30;;;15.20;99.90;;;;;;5050534;28;20481;-72
2023/01/02 04:34:02;;;;;;;3.20;1.10;;;15.20;99.90;;;;;;5050929;28;20419;-72
2023/01/02 04:36:28;;;;;;;2.03;0.90;;;15.20;99.90;;;;;;5050979;28;20416;-73
2023/01/02 04:38:54;;;;;;;2.93;1.10;;;15.20;99.90;;;;;;5050885;28;20989;-72
2023/01/02 04:41:28;;;;;;;1.33;1.00;;;15.10;99.90;;;;;;5050187;28;20375;-71
2023/01/02 04:43:55;;;;;;;1.27;1.00;;;15.20;99.90;;;;;;5050166;28;20691;-72
2023/01/02 04:46:21;;;;;;;1.57;1.20;;;15.20;99.90;;;;;;5050569;28;20443;-72
2023/01/02 04:48:47;;;;;;;3.17;1.40;;;15.20;99.90;;;;;;5051172;28;20404;-72
2023/01/02 04:51:12;;;;;;;1.30;1.20;;;15.20;99.90;;;;;;5049270;28;20488;-72
2023/01/02 04:53:38;;;;;;;1.47;0.83;;;15.20;99.90;;;;;;5051025;28;20173;-72
2023/01/02 04:56:04;;;;;;;4.40;1.17;;;15.20;99.90;;;;;;5050873;28;20226;-72
2023/01/02 04:58:29;;;;;;;1.53;0.90;;;15.10;99.90;;;;;;5050454;28;20174;-72
2023/01/02 05:00:55;;;;;;;3.70;1.10;;;15.10;99.90;;;;;;5049763;28;20661;-72
2023/01/02 05:03:20;;;;;;;2.83;1.07;;;15.20;99.90;;;;;;5049515;28;20720;-71
2023/01/02 05:05:46;;;;;;;1.63;0.90;;;15.20;99.90;;;;;;5050621;28;20637;-72
2023/01/02 05:08:12;;;;;;;1.40;1.03;;;15.30;99.90;;;;;;5050001;28;20694;-72
2023/01/02 05:10:37;;;;;;;1.40;0.97;;;15.30;99.90;;;;;;5049844;28;20169;-72
2023/01/02 05:13:03;;;;;;;1.20;1.10;;;15.30;99.90;;;;;;5049459;28;20303;-71
2023/01/02 05:15:29;;;;;;;4.47;1.60;;;15.30;99.90;;;;;;5050554;28;20174;-71
2023/01/02 05:17:56;;;;;;;1.87;1.40;;;15.30;99.90;;;;;;5049835;28;20174;-72
2023/01/02 05:20:21;;;;;;;5.47;1.20;;;15.30;99.90;;;;;;5050126;28;20192;-72
2023/01/02 05:25:33;;;;;;;2.97;1.23;;;15.30;99.90;;;;;;5050665;28;20180;-72
2023/01/02 05:27:58;;;;;;;4.90;1.37;;;15.20;99.90;;;;;;5049778;28;20408;-72
2023/01/02 05:30:24;;;;;;;2.67;1.30;;;15.20;99.90;;;;;;5050150;28;20420;-73
2023/01/02 05:32:50;;;;;;;4.87;1.00;;;15.10;99.90;;;;;;5048648;28;20216;-73
2023/01/02 05:35:15;;;;;;;6.83;1.00;;;15.00;99.90;;;;;;5050260;28;20177;-73
2023/01/02 05:37:41;;;;;;;4.03;0.93;;;15.00;99.90;;;;;;5050057;28;20174;-73
2023/01/02 05:40:08;;;;;;;2.77;1.47;;;15.00;99.90;;;;;;5049793;28;20252;-73
2023/01/02 05:42:33;;;;;;;2.70;1.27;;;15.00;99.90;;;;;;5048862;28;20209;-74
2023/01/02 05:44:59;;;;;;;3.83;1.47;;;15.00;99.90;;;;;;5049811;28;20995;-73
2023/01/02 05:47:24;;;;;;;2.50;0.97;;;15.10;99.90;;;;;;5049949;28;20173;-73
2023/01/02 05:49:50;;;;;;;1.30;1.20;;;15.10;99.90;;;;;;5049774;28;20699;-73
2023/01/02 05:52:15;;;;;;;2.50;1.07;;;15.00;99.90;;;;;;5049318;28;20201;-73
2023/01/02 05:54:41;;;;;;;4.20;1.20;;;15.00;99.90;;;;;;5049819;28;20471;-73
2023/01/02 05:57:06;;;;;;;8.33;2.17;;;15.00;99.90;;;;;;5049212;28;20177;-73
2023/01/02 05:59:32;;;;;;;1.90;1.30;;;15.00;99.90;;;;;;5049808;28;20173;-72
2023/01/02 06:01:57;;;;;;;3.43;1.53;;;15.00;99.90;;;;;;5050767;28;20204;-73
2023/01/02 06:04:23;;;;;;;3.60;1.10;;;14.90;99.90;;;;;;5054011;28;20177;-73
2023/01/02 06:06:48;;;;;;;2.50;1.27;;;15.00;99.90;;;;;;5053794;28;20178;-73
2023/01/02 06:09:15;;;;;;;4.70;1.13;;;14.90;99.90;;;;;;5053657;28;20170;-72
2023/01/02 06:11:41;;;;;;;2.20;1.30;;;14.90;99.90;;;;;;5052394;28;20197;-71
2023/01/02 06:14:07;;;;;;;7.30;2.03;;;14.90;99.90;;;;;;5053504;28;20411;-71
2023/01/02 06:16:33;;;;;;;1.10;1.00;;;14.90;99.90;;;;;;5053767;28;20170;-72
2023/01/02 06:18:59;;;;;;;1.97;1.30;;;14.80;99.90;;;;;;5048739;28;20435;-70
2023/01/02 06:21:24;;;;;;;2.97;1.33;;;14.80;99.90;;;;;;5045268;28;20205;-71
2023/01/02 06:23:55;;;;;;;6.27;1.43;;;14.80;99.90;;;;;;5049196;28;20213;-71
2023/01/02 06:26:21;;;;;;;4.10;1.07;;;14.80;99.90;;;;;;5035317;28;20202;-72
2023/01/02 06:28:53;;;;;;;4.30;1.97;;;14.80;99.90;;;;;;5048991;28;20506;-72
2023/01/02 06:31:20;;;;;;;3.27;1.50;;;14.70;99.90;;;;;;5052870;28;20588;-72
2023/01/02 06:33:46;;;;;;;8.03;1.47;;;14.70;99.90;;;;;;5053835;28;20454;-72
2023/01/02 06:36:15;;;;;;;3.87;1.63;;;14.70;99.90;;;;;;5053416;28;20951;-71
2023/01/02 06:38:41;;;;;;;1.97;1.40;;;14.70;99.90;;;;;;5053029;28;20702;-71
2023/01/02 06:41:08;;;;;;;1.63;1.20;;;14.60;99.90;;;;;;5034366;28;20486;-72
2023/01/02 06:43:44;;;;;;;7.00;1.70;;;14.60;99.90;;;;;;5053046;28;20455;-72
2023/01/02 06:46:11;;;;;;;3.00;1.30;;;14.60;99.90;;;;;;5053151;28;20408;-72
2023/01/02 06:48:38;;;;;;;2.73;1.00;;;14.60;99.90;;;;;;5053150;28;20455;-72
2023/01/02 06:51:09;;;;;;;4.30;1.40;;;14.60;99.90;;;;;;5051873;28;20419;-71
2023/01/02 06:53:36;;;;;;;3.23;1.57;;;14.60;99.90;;;;;;5035062;28;20412;-72
2023/01/02 06:56:03;;;;;;;1.50;0.90;;;14.60;99.90;;;;;;5052613;28;20852;-72
2023/01/02 06:58:30;;;;;;;3.17;1.80;;;14.60;99.90;;;;;;5052728;28;20443;-72
2023/01/02 07:01:05;;;;;;;5.70;2.10;;;14.50;99.90;;;;;;5052605;28;20483;-72
2023/01/02 07:03:31;;;;;;;4.60;1.63;;;14.50;99.90;;;;;;5052018;28;20785;-71
2023/01/02 07:06:09;;;;;;;6.80;1.53;;;14.50;99.90;;;;;;5052515;28;20419;-71
2023/01/02 07:08:35;;;;;;;2.40;1.43;;;14.50;99.90;;;;;;5052881;28;20220;-71
2023/01/02 07:11:16;;;;;;;3.17;1.43;;;14.50;99.90;;;;;;5051950;28;20428;-70
2023/01/02 07:13:42;;;;;;;2.87;1.30;;;14.50;99.90;;;;;;5051455;28;20447;-71
2023/01/02 07:16:12;;;;;;;4.87;1.63;;;14.50;99.90;;;;;;5052536;28;20423;-71
2023/01/02 07:18:38;;;;;;;3.83;1.60;;;14.40;99.90;;;;;;5051752;28;20940;-69
2023/01/02 07:21:05;;;;;;;5.23;1.80;;;14.40;99.90;;;;;;5051563;28;20493;-70
2023/01/02 07:23:31;;;;;;;6.13;1.90;;;14.40;99.90;;;;;;5052330;28;20220;-70
2023/01/02 07:25:59;;;;;;;4.80;1.30;;;14.30;99.90;;;;;;5051688;28;20920;-71
2023/01/02 07:28:25;;;;;;;2.43;1.80;;;14.30;99.90;;;;;;5052494;28;20166;-71
2023/01/02 07:30:50;;;;;;;2.57;1.60;;;14.30;99.90;;;;;;5051844;28;20451;-71
2023/01/02 07:33:16;;;;;;;2.47;1.60;;;14.20;99.90;;;;;;5051405;28;20419;-71
2023/01/02 07:35:43;;;;;;;3.63;2.00;;;14.10;99.90;;;;;;5051493;28;20235;-71
2023/01/02 07:38:08;;;;;;;8.47;3.93;;;14.00;99.90;;;;;;5051669;28;20742;-70
2023/01/02 07:40:34;;;;;;;3.17;1.90;;;13.90;99.90;;;;;;5051967;28;20466;-70
2023/01/02 07:42:59;;;;;;;6.80;2.07;;;13.70;99.90;;;;;;5050802;28;20463;-70
2023/01/02 07:45:25;;;;;;;10.87;2.20;;;13.50;99.90;;;;;;5051656;28;20183;-71
2023/01/02 07:47:50;;;;;;;2.90;2.30;;;13.40;99.90;;;;;;5051699;28;20653;-70
2023/01/02 07:50:16;;;;;;;3.00;1.67;;;13.30;99.90;;;;;;5051725;28;20174;-70
2023/01/02 07:52:42;;;;;;;3.27;2.03;;;13.30;99.90;;;;;;5050261;28;20742;-70
2023/01/02 07:55:08;;;;;;;5.73;2.50;;;13.20;99.90;;;;;;5051956;28;20223;-71
2023/01/02 07:57:34;;;;;;;2.53;2.33;;;13.10;99.90;;;;;;5051948;28;20419;-70
2023/01/02 07:59:59;;;;;;;3.40;2.40;;;13.00;99.90;;;;;;5051223;28;20419;-69
2023/01/02 08:02:25;;;;;;;3.93;2.50;;;13.00;99.90;;;;;;5050946;28;20209;-70
2023/01/02 08:04:50;;;;;;;4.77;2.20;;;12.80;99.90;;;;;;5051286;28;20525;-71
2023/01/02 08:07:16;;;;;;;4.33;2.40;;;12.80;99.90;;;;;;5050918;28;20185;-70
2023/01/02 08:09:41;;;;;;;6.80;2.50;;;12.80;99.90;;;;;;5051045;28;20655;-71
2023/01/02 08:12:07;;;;;;;3.30;2.20;;;12.80;99.90;;;;;;5032707;28;20194;-71
2023/01/02 08:14:32;;;;;;;4.60;2.60;;;12.80;99.90;;;;;;5051451;28;20185;-70
2023/01/02 08:16:58;;;;;;;5.10;1.50;;;12.80;99.90;;;;;;5032687;28;20177;-70
2023/01/02 08:19:23;;;;;;;4.03;2.53;;;12.80;99.90;;;;;;5050980;28;20169;-70
2023/01/02 08:21:49;;;;;;;10.47;3.20;;;12.80;99.90;;;;;;5050414;28;20235;-68
2023/01/02 08:24:14;;;;;;;3.60;1.73;;;12.90;99.90;;;;;;5050622;28;20658;-70
2023/01/02 08:26:40;;;;;;;6.00;2.33;;;12.90;99.90;;;;;;5051118;28;20197;-69
2023/01/02 08:29:07;;;;;;;5.03;2.20;;;12.90;99.90;;;;;;5050797;28;20200;-70
2023/01/02 08:31:33;;;;;;;9.43;2.47;;;12.90;99.90;;;;;;5050378;28;20226;-70
2023/01/02 08:33:59;;;;;;;6.93;2.20;;;12.90;99.90;;;;;;5050160;28;20404;-69
2023/01/02 08:36:24;;;;;;;4.63;3.20;;;12.90;99.90;;;;;;5051046;28;20227;-71
2023/01/02 08:38:50;;;;;;;9.20;2.77;;;13.00;99.90;;;;;;5050891;28;20574;-70
2023/01/02 08:41:30;;;;;;;5.00;3.13;;;13.00;99.90;;;;;;5050200;28;20197;-70
2023/01/02 08:43:55;;;;;;;3.60;2.77;;;13.10;99.90;;;;;;5048452;28;20192;-70
2023/01/02 08:46:21;;;;;;;6.83;2.43;;;13.00;99.90;;;;;;5030802;28;20412;-70
2023/01/02 08:48:46;;;;;;;5.43;2.43;;;13.10;99.90;;;;;;5030620;28;20674;-70
2023/01/02 08:51:12;;;;;;;3.70;1.87;;;13.20;99.90;;;;;;5029839;28;20194;-71
2023/01/02 08:53:37;;;;;;;5.60;2.20;;;13.30;99.90;;;;;;5030234;28;20231;-71
2023/01/02 08:56:23;;;;;;;3.67;2.47;;;13.40;99.90;;;;;;5012904;28;20699;-71
2023/01/02 08:58:56;;;;;;;6.33;2.43;;;13.50;99.90;;;;;;5030523;28;20188;-71
2023/01/02 09:01:24;;;;;;;5.03;2.57;;;13.70;99.90;;;;;;5029583;28;20482;-70
2023/01/02 09:03:50;;;;;;;6.03;2.47;;;13.80;99.90;;;;;;5029158;28;20465;-70
2023/01/02 09:06:16;;;;;;;4.43;2.23;;;13.90;99.90;;;;;;5028850;28;20413;-70
2023/01/02 09:08:42;;;;;;;4.83;2.43;;;14.00;99.90;;;;;;5028988;28;20412;-70
2023/01/02 09:11:16;;;;;;;6.50;2.77;;;14.00;99.90;;;;;;5029131;28;20190;-70
2023/01/02 09:13:42;;;;;;;4.30;3.20;;;14.10;99.90;;;;;;5029583;28;20246;-71
2023/01/02 09:16:09;;;;;;;2.50;1.87;;;14.20;99.90;;;;;;5029474;28;20421;-71
2023/01/02 09:18:35;;;;;;;6.10;2.20;;;14.30;99.90;;;;;;5030319;28;20424;-71
2023/01/02 09:21:01;;;;;;;7.20;3.20;;;14.50;99.90;;;;;;5029694;28;20432;-69
2023/01/02 09:23:27;;;;;;;4.17;2.70;;;14.70;99.90;;;;;;5029703;28;20467;-70
2023/01/02 09:26:00;;;;;;;3.83;2.30;;;15.00;99.90;;;;;;5029950;28;20186;-70
2023/01/02 09:28:27;;;;;;;2.20;2.00;;;15.40;99.90;;;;;;5030279;28;20405;-70
2023/01/02 09:30:53;;;;;;;3.17;1.50;;;15.90;99.90;;;;;;5012248;28;20870;-70
2023/01/02 09:33:18;;;;;;;7.80;2.50;;;16.70;99.90;;;;;;5029347;28;20427;-69
2023/01/02 09:35:44;;;;;;;5.20;1.40;;;17.40;99.90;;;;;;5029954;28;20413;-70
2023/01/02 09:38:09;;;;;;;2.30;1.53;;;17.60;99.90;;;;;;5029581;28;20731;-71
2023/01/02 09:40:37;;;;;;;3.43;1.30;;;17.50;99.90;;;;;;5030149;28;20261;-70
2023/01/02 09:43:03;;;;;;;4.20;1.47;;;17.50;99.90;;;;;;5029407;28;20678;-71
2023/01/02 09:45:29;;;;;;;3.87;1.27;;;17.30;99.90;;;;;;5030352;28;20412;-71
2023/01/02 09:47:55;;;;;;;2.27;1.10;;;17.20;99.90;;;;;;5012346;28;20533;-71
2023/01/02 09:50:28;;;;;;;2.83;1.40;;;17.10;99.90;;;;;;5030479;28;20193;-71
2023/01/02 09:52:56;;;;;;;3.20;1.30;;;17.10;99.90;;;;;;5028977;28;20810;-72
2023/01/02 09:55:33;;;;;;;3.50;1.40;;;17.10;99.90;;;;;;5030121;28;20780;-71
2023/01/02 09:58:17;;;;;;;2.23;1.20;;;16.90;99.90;;;;;;5030041;28;20543;-71
2023/01/02 10:00:46;;;;;;;6.37;1.50;;;16.90;99.90;;;;;;5030041;28;20412;-71
2023/01/02 10:03:39;;;;;;;1.80;0.87;;;16.90;99.90;;;;;;5029214;28;20488;-71
2023/01/02 10:06:10;;;;;;;1.73;1.00;;;16.90;99.90;;;;;;5030414;28;20499;-71
2023/01/02 10:09:02;;;;;;;5.50;1.40;;;17.00;99.90;;;;;;5030250;28;20855;-72
2023/01/02 10:12:00;;;;;;;4.10;1.30;;;17.20;99.90;;;;;;5029958;28;20438;-72
2023/01/02 10:14:35;;;;;;;5.27;1.40;;;17.30;99.90;;;;;;5030183;28;20405;-71
2023/01/02 10:17:02;;;;;;;3.57;1.37;;;17.60;99.90;;;;;;5029722;28;20523;-71
2023/01/02 10:19:43;;;;;;;2.47;1.33;;;17.80;99.90;;;;;;5029277;28;20416;-72
2023/01/02 10:22:14;;;;;;;3.03;1.10;;;18.10;99.90;;;;;;5029408;28;20443;-72
2023/01/02 10:25:02;;;;;;;3.43;1.47;;;18.30;99.90;;;;;;5030500;28;20851;-71
2023/01/02 10:27:36;;;;;;;1.50;1.40;;;18.50;99.90;;;;;;5034280;28;20936;-72
2023/01/02 10:30:27;;;;;;;6.13;1.23;;;18.70;99.90;;;;;;5049238;28;20408;-71
2023/01/02 10:33:00;;;;;;;7.53;2.13;;;18.70;99.90;;;;;;5048419;28;20522;-71
2023/01/02 10:35:35;;;;;;;9.27;1.90;;;18.70;99.90;;;;;;5049951;28;20499;-72
2023/01/02 10:38:01;;;;;;;4.10;1.40;;;18.80;99.90;;;;;;5049701;28;20415;-71
2023/01/02 10:40:29;;;;;;;6.33;2.10;;;19.10;99.90;;;;;;5049694;28;20451;-71
2023/01/02 10:42:57;;;;;;;5.73;1.50;;;19.40;99.90;;;;;;5048287;28;20490;-71
2023/01/02 10:45:22;;;;;;;6.07;1.30;;;19.30;99.90;;;;;;5049449;28;20419;-71
2023/01/02 10:47:48;;;;;;;3.67;1.77;;;19.40;99.90;;;;;;5037325;28;20809;-71
2023/01/02 10:50:18;;;;;;;6.70;2.10;;;19.50;99.90;;;;;;5032687;28;20181;-72
2023/01/02 10:52:50;;;;;;;7.77;1.53;;;19.80;99.90;;;;;;5042498;28;20200;-71
2023/01/02 10:55:39;;;;;;;2.90;1.40;;;20.10;99.90;;;;;;5052743;28;20411;-71
2023/01/02 10:58:26;;;;;;;6.23;1.93;;;20.40;99.90;;;;;;5051962;28;20415;-72
2023/01/02 11:01:04;;;;;;;5.37;3.23;;;20.60;99.90;;;;;;5052248;28;20419;-71
2023/01/02 11:03:30;;;;;;;7.03;1.73;;;20.70;99.90;;;;;;5036647;28;20470;-72
2023/01/02 11:05:57;;;;;;;3.67;1.43;;;20.60;99.90;;;;;;5032753;28;20414;-71
2023/01/02 11:08:33;;;;;;;4.93;1.73;;;20.60;99.40;;;;;;5032988;28;20195;-71
2023/01/02 11:11:01;;;;;;;5.40;1.70;;;20.60;99.50;;;;;;5032619;28;20436;-70
2023/01/02 11:13:43;;;;;;;5.87;1.70;;;20.70;99.10;;;;;;5032700;28;20413;-71
2023/01/02 11:16:13;;;;;;;5.20;1.70;;;20.60;98.90;;;;;;5032139;28;20432;-72
2023/01/02 11:18:39;;;;;;;5.13;1.50;;;20.70;99.20;;;;;;5014934;28;20629;-69
2023/01/02 11:21:06;;;;;;;6.07;1.47;;;20.80;98.70;;;;;;5031783;28;20515;-69
2023/01/02 11:23:43;;;;;;;6.23;1.50;;;20.80;98.50;;;;;;5032845;28;20229;-71
2023/01/02 11:26:29;;;;;;;3.27;1.67;;;20.90;97.80;;;;;;5032293;28;20417;-72
2023/01/02 11:28:57;;;;;;;4.80;1.83;;;21.10;97.10;;;;;;5031798;28;20405;-71
2023/01/02 11:31:23;;;;;;;7.27;1.63;;;21.00;97.20;;;;;;5031573;28;20586;-71
2023/01/02 11:33:49;;;;;;;5.13;1.60;;;21.10;97.60;;;;;;5032331;28;20519;-71
2023/01/02 11:36:18;;;;;;;6.53;1.50;;;21.10;97.40;;;;;;5032343;28;20183;-71
2023/01/02 11:38:52;;;;;;;8.53;2.20;;;20.90;95.90;;;;;;5031305;28;20334;-71
2023/01/02 11:44:54;;;;;;;12.00;1.90;;;20.50;96.50;;;;;;5032587;28;20860;-70
2023/01/02 11:47:34;;;;;;;4.00;1.73;;;20.50;96.50;;;;;;5031729;28;20412;-70
2023/01/02 11:50:02;;;;;;;6.33;1.50;;;20.40;97.10;;;;;;5031667;28;20401;-70
2023/01/02 11:52:51;;;;;;;7.87;1.57;;;20.20;96.80;;;;;;5031597;28;20425;-71
2023/01/02 11:55:47;;;;;;;4.37;1.77;;;19.80;97.50;;;;;;5032195;28;20901;-71
2023/01/02 11:58:37;;;;;;;5.47;1.93;;;19.30;99.90;;;;;;5031927;28;20448;-71
2023/01/02 12:01:38;;;;;;;5.63;1.77;;;19.30;99.90;;;;;;5030926;28;20420;-70
2023/01/02 12:04:04;;;;;;;3.73;1.70;;;19.10;99.90;;;;;;5027311;28;20460;-71
2023/01/02 12:06:50;;;;;;;6.20;1.97;;;19.10;99.90;;;;;;5031437;28;20508;-71
2023/01/02 12:09:33;;;;;;;7.30;1.93;;;18.90;99.90;;;;;;5031429;28;20651;-71
2023/01/02 12:12:19;;;;;;;70.33;5.90;;;18.80;99.90;;;;;;5012682;28;20453;-69
2023/01/02 12:15:08;;;;;;;8.33;2.00;;;18.70;99.90;;;;;;4990707;28;20808;-71
2023/01/02 12:18:02;;;;;;;6.37;1.50;;;18.70;99.90;;;;;;4977103;28;20417;-71
2023/01/02 12:20:53;;;;;;;8.23;2.23;;;18.70;99.90;;;;;;5032114;28;20411;-69
2023/01/02 12:23:43;;;;;;;5.27;1.73;;;18.50;99.90;;;;;;5030880;28;20448;-69
2023/01/02 12:26:26;;;;;;;3.27;2.17;;;18.40;99.90;;;;;;5013328;28;21008;-69
2023/01/02 12:28:58;;;;;;;8.90;2.07;;;18.30;99.90;;;;;;5031244;28;20451;-70
2023/01/02 12:32:02;;;;;;;4.93;1.50;;;18.30;99.90;;;;;;5030652;28;20441;-70
2023/01/02 12:34:49;;;;;;;8.53;2.03;;;18.20;99.90;;;;;;5031374;28;20443;-70
2023/01/02 12:37:26;;;;;;;5.57;2.43;;;18.10;99.90;;;;;;5031638;28;20408;-71
2023/01/02 12:40:04;;;;;;;8.83;2.07;;;18.10;99.90;;;;;;5031549;28;20507;-69
2023/01/02 12:42:57;;;;;;;7.10;2.10;;;17.90;99.90;;;;;;5031076;28;20884;-70
2023/01/02 12:45:41;;;;;;;9.17;2.17;;;17.90;99.90;;;;;;5031267;28;20943;-69
2023/01/02 12:48:44;;;;;;;7.50;2.13;;;17.90;99.90;;;;;;5033106;28;20440;-69
2023/01/02 12:51:25;;;;;;;7.60;1.83;;;17.90;99.90;;;;;;5049842;28;20465;-69
2023/01/02 12:54:31;;;;;;;5.27;1.97;;;18.00;99.90;;;;;;5050833;28;20431;-70
2023/01/02 12:57:20;;;;;;;11.07;1.50;;;17.90;99.90;;;;;;5050854;28;20461;-70
2023/01/02 13:00:38;;;;;;;3.90;1.67;;;17.90;99.90;;;;;;5049794;28;20438;-69
2023/01/02 13:03:32;;;;;;;4.97;1.53;;;17.90;99.90;;;;;;5048967;28;20543;-68
2023/01/02 13:06:10;;;;;;;4.37;1.63;;;17.90;99.90;;;;;;5036530;28;21009;-68
2023/01/02 13:08:48;;;;;;;5.80;1.90;;;17.90;99.90;;;;;;5050706;28;20804;-69
2023/01/02 13:11:21;;;;;;;9.97;2.90;;;17.90;99.90;;;;;;5048823;28;20526;-70
2023/01/02 13:13:47;;;;;;;9.40;2.00;;;17.80;99.90;;;;;;5050019;28;20495;-70
2023/01/02 13:16:17;;;;;;;5.17;2.20;;;17.70;99.90;;;;;;5050300;28;20511;-70
2023/01/02 13:18:54;;;;;;;11.27;2.27;;;17.70;99.90;;;;;;5049983;28;20929;-69
2023/01/02 13:21:29;;;;;;;5.03;1.73;;;17.50;99.90;;;;;;5029711;28;20439;-69
2023/01/02 13:23:56;;;;;;;8.50;2.27;;;17.40;99.90;;;;;;5030036;28;20479;-69
2023/01/02 13:26:25;;;;;;;4.50;2.00;;;17.30;99.90;;;;;;5029785;28;20436;-69
2023/01/02 13:29:00;;;;;;;6.83;2.50;;;17.30;99.90;;;;;;5029945;28;20420;-70
2023/01/02 13:31:30;;;;;;;5.47;2.40;;;17.30;99.90;;;;;;5036614;28;20963;-70
2023/01/02 13:33:56;;;;;;;11.83;2.20;;;17.30;99.90;;;;;;5049382;28;20430;-70
2023/01/02 13:36:27;;;;;;;10.23;2.00;;;17.30;99.90;;;;;;5052256;28;20936;-69
2023/01/02 13:38:58;;;;;;;9.43;1.90;;;17.20;99.90;;;;;;5039388;28;20256;-70
2023/01/02 13:41:25;;;;;;;7.73;2.73;;;17.20;99.90;;;;;;5042944;28;20454;-69
2023/01/02 13:43:59;;;;;;;5.70;2.17;;;17.10;99.90;;;;;;5048782;28;20459;-69
2023/01/02 13:46:28;;;;;;;5.83;1.90;;;17.00;99.90;;;;;;5026182;28;20450;-70
2023/01/02 13:48:58;;;;;;;7.77;2.20;;;17.00;99.90;;;;;;5050125;28;20403;-70
2023/01/02 13:51:28;;;;;;;4.30;1.80;;;17.00;99.90;;;;;;5048592;28;20498;-69
2023/01/02 13:53:54;;;;;;;12.10;2.93;;;16.90;99.90;;;;;;5049500;28;20477;-70
2023/01/02 13:56:27;;;;;;;7.50;2.27;;;17.00;99.90;;;;;;5049703;28;20416;-70
2023/01/02 13:59:21;;;;;;;16.03;2.17;;;16.90;99.90;;;;;;5049919;28;20471;-71
2023/01/02 14:01:58;;;;;;;8.23;2.93;;;16.90;99.90;;;;;;5037988;28;20448;-70
2023/01/02 14:04:28;;;;;;;5.37;1.90;;;16.80;99.90;;;;;;5050153;28;20976;-71
2023/01/02 14:06:54;;;;;;;6.23;2.20;;;16.70;99.90;;;;;;5050009;28;20483;-71
2023/01/02 14:09:21;;;;;;;15.47;2.60;;;16.70;99.90;;;;;;5049434;28;20522;-70
2023/01/02 14:11:56;;;;;;;9.60;2.57;;;16.60;99.90;;;;;;5049780;28;20201;-71
2023/01/02 14:14:36;;;;;;;9.57;2.37;;;16.50;99.90;;;;;;5050145;28;20415;-71
2023/01/02 14:17:10;;;;;;;7.40;2.40;;;16.40;99.90;;;;;;5049444;28;20816;-71
2023/01/02 14:19:37;;;;;;;12.90;3.90;;;16.40;99.90;;;;;;5049689;28;20882;-71
2023/01/02 14:22:16;;;;;;;13.53;4.57;;;16.40;99.90;;;;;;5048741;28;20446;-71
2023/01/02 14:24:46;;;;;;;10.70;4.20;;;16.30;99.90;;;;;;5035657;28;20514;-71
2023/01/02 14:27:15;;;;;;;15.50;3.70;;;16.30;99.90;;;;;;5035547;28;21328;-71
2023/01/02 14:30:15;;;;;;;19.30;3.73;;;16.20;99.90;;;;;;5052856;28;20988;-71
2023/01/02 14:32:45;;;;;;;6.47;2.73;;;16.10;99.90;;;;;;4996791;28;20479;-71
2023/01/02 14:35:13;;;;;;;12.40;3.87;;;16.00;99.90;;;;;;5053026;28;20515;-71
2023/01/02 14:37:41;;;;;;;8.90;3.27;;;16.00;99.90;;;;;;5053460;28;20423;-70
2023/01/02 14:40:14;;;;;;;11.73;2.93;;;15.90;99.90;;;;;;5053015;28;20424;-71
2023/01/02 14:45:27;;;;;;;9.00;2.33;;;15.80;99.90;;;;;;5052950;28;20792;-71